sensor_id;sensor_type;location;lat;lon;timestamp;pressure;altitude;pressure_sealevel;temperature;humidity
54588;BME280;40484;50.198;19.576;2023-04-02T00:01:43;100534.73;;;14.15;54.94
54588;BME280;40484;50.198;19.576;2023-04-02T00:06:45;100536.23;;;14.25;54.76
54588;BME280;40484;50.198;19.576;2023-04-02T00:11:48;100539.77;;;14.36;54.42
54588;BME280;40484;50.198;19.576;2023-04-02T00:16:51;100537.34;;;14.21;54.41
54588;BME280;40484;50.198;19.576;2023-04-02T00:21:54;100546.56;;;14.31;54.28
54588;BME280;40484;50.198;19.576;2023-04-02T00:26:56;100546.05;;;14.24;54.21
54588;BME280;40484;50.198;19.576;2023-04-02T00:31:58;100550.64;;;14.04;54.42
54588;BME280;40484;50.198;19.576;2023-04-02T00:37:00;100556.91;;;14.14;54.30
54588;BME280;40484;50.198;19.576;2023-04-02T00:42:02;100551.38;;;14.10;54.25
54588;BME280;40484;50.198;19.576;2023-04-02T00:47:19;100558.87;;;13.87;54.34
54588;BME280;40484;50.198;19.576;2023-04-02T00:52:45;100554.23;;;14.01;54.10
54588;BME280;40484;50.198;19.576;2023-04-02T00:57:51;100560.34;;;13.99;54.00
54588;BME280;40484;50.198;19.576;2023-04-02T01:14:02;100571.42;;;13.88;53.90
54588;BME280;40484;50.198;19.576;2023-04-02T01:19:16;100577.41;;;13.90;53.68
54588;BME280;40484;50.198;19.576;2023-04-02T01:24:14;100583.05;;;13.79;53.82
54588;BME280;40484;50.198;19.576;2023-04-02T01:29:29;100582.65;;;13.77;53.71
54588;BME280;40484;50.198;19.576;2023-04-02T01:34:56;100583.61;;;13.82;53.48
54588;BME280;40484;50.198;19.576;2023-04-02T01:45:21;100582.76;;;14.07;52.97
54588;BME280;40484;50.198;19.576;2023-04-02T01:50:30;100584.95;;;14.13;52.92
54588;BME280;40484;50.198;19.576;2023-04-02T01:55:45;100583.89;;;14.13;52.76
54588;BME280;40484;50.198;19.576;2023-04-02T02:00:58;100587.17;;;14.05;52.45
54588;BME280;40484;50.198;19.576;2023-04-02T02:06:00;100591.62;;;13.90;52.70
54588;BME280;40484;50.198;19.576;2023-04-02T02:11:03;100599.45;;;13.85;52.67
54588;BME280;40484;50.198;19.576;2023-04-02T02:16:06;100602.26;;;13.90;52.60
54588;BME280;40484;50.198;19.576;2023-04-02T02:21:09;100608.23;;;13.97;52.45
54588;BME280;40484;50.198;19.576;2023-04-02T02:26:12;100613.05;;;13.95;52.30
54588;BME280;40484;50.198;19.576;2023-04-02T02:31:40;100618.59;;;13.90;52.21
54588;BME280;40484;50.198;19.576;2023-04-02T02:36:55;100619.02;;;13.76;52.27
54588;BME280;40484;50.198;19.576;2023-04-02T02:42:01;100616.09;;;13.76;52.26
54588;BME280;40484;50.198;19.576;2023-04-02T02:47:10;100625.04;;;13.79;52.30
54588;BME280;40484;50.198;19.576;2023-04-02T02:52:21;100629.35;;;13.83;52.13
54588;BME280;40484;50.198;19.576;2023-04-02T02:57:29;100624.70;;;13.75;52.14
54588;BME280;40484;50.198;19.576;2023-04-02T03:02:33;100627.97;;;13.77;52.10
54588;BME280;40484;50.198;19.576;2023-04-02T03:07:34;100631.42;;;13.72;52.04
54588;BME280;40484;50.198;19.576;2023-04-02T03:12:50;100626.83;;;13.59;52.08
54588;BME280;40484;50.198;19.576;2023-04-02T03:18:00;100632.27;;;13.57;52.12
54588;BME280;40484;50.198;19.576;2023-04-02T03:23:41;100643.50;;;13.61;52.09
54588;BME280;40484;50.198;19.576;2023-04-02T03:28:42;100640.13;;;13.49;52.14
54588;BME280;40484;50.198;19.576;2023-04-02T03:33:45;100651.77;;;13.39;52.16
54588;BME280;40484;50.198;19.576;2023-04-02T03:38:51;100656.32;;;13.42;52.17
54588;BME280;40484;50.198;19.576;2023-04-02T03:43:59;100653.92;;;13.48;52.09
54588;BME280;40484;50.198;19.576;2023-04-02T03:49:17;100648.84;;;13.52;52.02
54588;BME280;40484;50.198;19.576;2023-04-02T03:54:14;100663.10;;;13.35;52.16
54588;BME280;40484;50.198;19.576;2023-04-02T03:59:28;100667.37;;;13.42;52.19
54588;BME280;40484;50.198;19.576;2023-04-02T04:04:29;100675.36;;;13.53;52.02
54588;BME280;40484;50.198;19.576;2023-04-02T04:09:35;100687.99;;;13.60;51.87
54588;BME280;40484;50.198;19.576;2023-04-02T04:14:39;100682.97;;;13.61;51.86
54588;BME280;40484;50.198;19.576;2023-04-02T04:19:52;100689.12;;;13.55;51.89
54588;BME280;40484;50.198;19.576;2023-04-02T04:25:22;100690.65;;;13.49;51.92
54588;BME280;40484;50.198;19.576;2023-04-02T04:30:27;100703.73;;;13.55;51.89
54588;BME280;40484;50.198;19.576;2023-04-02T04:35:31;100716.30;;;13.67;51.81
54588;BME280;40484;50.198;19.576;2023-04-02T04:40:34;100720.45;;;13.68;51.81
54588;BME280;40484;50.198;19.576;2023-04-02T04:45:43;100716.53;;;13.64;51.86
54588;BME280;40484;50.198;19.576;2023-04-02T04:50:52;100725.60;;;13.58;51.94
54588;BME280;40484;50.198;19.576;2023-04-02T04:55:52;100721.70;;;13.53;52.01
54588;BME280;40484;50.198;19.576;2023-04-02T05:01:02;100732.38;;;13.34;52.28
54588;BME280;40484;50.198;19.576;2023-04-02T05:06:18;100737.27;;;13.28;52.48
54588;BME280;40484;50.198;19.576;2023-04-02T05:11:29;100740.95;;;13.35;52.49
54588;BME280;40484;50.198;19.576;2023-04-02T05:16:44;100747.64;;;13.34;52.50
54588;BME280;40484;50.198;19.576;2023-04-02T05:22:24;100748.11;;;13.46;52.37
54588;BME280;40484;50.198;19.576;2023-04-02T05:27:27;100749.09;;;13.51;52.30
54588;BME280;40484;50.198;19.576;2023-04-02T05:32:33;100748.16;;;13.58;52.27
54588;BME280;40484;50.198;19.576;2023-04-02T05:37:37;100759.80;;;13.48;52.52
54588;BME280;40484;50.198;19.576;2023-04-02T05:42:38;100763.95;;;13.48;52.66
54588;BME280;40484;50.198;19.576;2023-04-02T05:47:42;100761.66;;;13.48;52.67
54588;BME280;40484;50.198;19.576;2023-04-02T05:52:47;100766.92;;;13.24;53.03
54588;BME280;40484;50.198;19.576;2023-04-02T05:57:50;100769.55;;;13.15;53.39
54588;BME280;40484;50.198;19.576;2023-04-02T06:03:00;100770.69;;;13.06;53.60
54588;BME280;40484;50.198;19.576;2023-04-02T06:08:13;100778.57;;;13.11;53.71
54588;BME280;40484;50.198;19.576;2023-04-02T06:13:15;100773.37;;;13.10;54.01
54588;BME280;40484;50.198;19.576;2023-04-02T06:18:31;100782.11;;;13.31;53.70
54588;BME280;40484;50.198;19.576;2023-04-02T06:24:02;100787.70;;;13.52;53.51
54588;BME280;40484;50.198;19.576;2023-04-02T06:29:07;100795.29;;;13.63;53.24
54588;BME280;40484;50.198;19.576;2023-04-02T06:34:17;100809.28;;;13.62;53.30
54588;BME280;40484;50.198;19.576;2023-04-02T06:39:20;100812.54;;;13.54;53.31
54588;BME280;40484;50.198;19.576;2023-04-02T06:44:23;100808.34;;;13.55;53.27
54588;BME280;40484;50.198;19.576;2023-04-02T06:49:55;100819.30;;;13.46;53.20
54588;BME280;40484;50.198;19.576;2023-04-02T06:54:54;100824.52;;;13.48;53.12
54588;BME280;40484;50.198;19.576;2023-04-02T06:59:56;100832.28;;;13.45;53.07
54588;BME280;40484;50.198;19.576;2023-04-02T07:05:03;100842.02;;;13.33;53.14
54588;BME280;40484;50.198;19.576;2023-04-02T07:10:01;100859.08;;;12.95;53.71
54588;BME280;40484;50.198;19.576;2023-04-02T07:15:03;100868.29;;;12.37;55.25
54588;BME280;40484;50.198;19.576;2023-04-02T07:20:05;100879.22;;;12.24;55.41
54588;BME280;40484;50.198;19.576;2023-04-02T07:25:07;100892.73;;;11.86;55.54
54588;BME280;40484;50.198;19.576;2023-04-02T07:30:33;100902.39;;;11.58;56.07
54588;BME280;40484;50.198;19.576;2023-04-02T07:35:34;100926.41;;;11.11;56.39
54588;BME280;40484;50.198;19.576;2023-04-02T07:40:36;100935.38;;;10.94;56.28
54588;BME280;40484;50.198;19.576;2023-04-02T07:45:37;100955.93;;;10.65;56.30
54588;BME280;40484;50.198;19.576;2023-04-02T07:50:39;100959.03;;;10.62;56.29
54588;BME280;40484;50.198;19.576;2023-04-02T07:55:41;100970.86;;;10.45;56.15
54588;BME280;40484;50.198;19.576;2023-04-02T08:00:43;100987.46;;;10.39;56.15
54588;BME280;40484;50.198;19.576;2023-04-02T08:05:48;100996.27;;;9.70;56.20
54588;BME280;40484;50.198;19.576;2023-04-02T08:10:50;101017.76;;;9.05;57.21
54588;BME280;40484;50.198;19.576;2023-04-02T08:15:52;101020.66;;;9.05;56.79
54588;BME280;40484;50.198;19.576;2023-04-02T08:20:53;101029.91;;;8.95;56.33
54588;BME280;40484;50.198;19.576;2023-04-02T08:25:55;101036.49;;;9.11;55.80
54588;BME280;40484;50.198;19.576;2023-04-02T08:30:56;101038.81;;;9.18;55.90
54588;BME280;40484;50.198;19.576;2023-04-02T08:35:58;101046.85;;;9.38;54.98
54588;BME280;40484;50.198;19.576;2023-04-02T08:41:00;101053.26;;;9.33;54.92
54588;BME280;40484;50.198;19.576;2023-04-02T08:51:31;101060.84;;;9.47;54.68
54588;BME280;40484;50.198;19.576;2023-04-02T08:57:03;101065.76;;;9.41;54.74
54588;BME280;40484;50.198;19.576;2023-04-02T09:02:23;101068.40;;;9.35;54.96
54588;BME280;40484;50.198;19.576;2023-04-02T09:07:23;101075.88;;;9.34;54.96
54588;BME280;40484;50.198;19.576;2023-04-02T09:12:30;101086.48;;;9.62;54.54
54588;BME280;40484;50.198;19.576;2023-04-02T09:17:32;101086.90;;;9.14;54.88
54588;BME280;40484;50.198;19.576;2023-04-02T09:22:33;101092.18;;;8.83;55.94
54588;BME280;40484;50.198;19.576;2023-04-02T09:27:35;101104.23;;;9.27;55.96
54588;BME280;40484;50.198;19.576;2023-04-02T09:32:47;101116.87;;;9.75;55.48
54588;BME280;40484;50.198;19.576;2023-04-02T09:38:09;101118.38;;;9.55;55.58
54588;BME280;40484;50.198;19.576;2023-04-02T09:43:15;101130.88;;;8.96;55.58
54588;BME280;40484;50.198;19.576;2023-04-02T09:48:56;101148.98;;;8.52;56.77
54588;BME280;40484;50.198;19.576;2023-04-02T09:59:13;101166.63;;;8.00;58.42
54588;BME280;40484;50.198;19.576;2023-04-02T10:09:43;101189.10;;;7.81;58.24
54588;BME280;40484;50.198;19.576;2023-04-02T10:14:46;101198.13;;;7.53;58.38
54588;BME280;40484;50.198;19.576;2023-04-02T10:19:53;101194.86;;;7.34;59.32
54588;BME280;40484;50.198;19.576;2023-04-02T10:24:57;101214.91;;;7.67;58.57
54588;BME280;40484;50.198;19.576;2023-04-02T10:30:18;101221.31;;;7.55;59.00
54588;BME280;40484;50.198;19.576;2023-04-02T10:36:06;101224.48;;;7.58;58.88
54588;BME280;40484;50.198;19.576;2023-04-02T10:46:24;101248.43;;;7.12;59.95
54588;BME280;40484;50.198;19.576;2023-04-02T10:51:43;101244.63;;;7.62;59.32
54588;BME280;40484;50.198;19.576;2023-04-02T10:56:47;101251.59;;;7.81;58.92
54588;BME280;40484;50.198;19.576;2023-04-02T11:01:50;101264.72;;;7.74;59.01
54588;BME280;40484;50.198;19.576;2023-04-02T11:07:00;101273.11;;;7.49;59.33
54588;BME280;40484;50.198;19.576;2023-04-02T11:12:03;101277.27;;;7.40;59.45
54588;BME280;40484;50.198;19.576;2023-04-02T11:17:07;101286.78;;;7.38;59.40
54588;BME280;40484;50.198;19.576;2023-04-02T11:22:24;101284.91;;;7.59;59.70
54588;BME280;40484;50.198;19.576;2023-04-02T11:27:47;101293.88;;;8.08;58.93
54588;BME280;40484;50.198;19.576;2023-04-02T11:32:49;101295.66;;;8.16;58.21
54588;BME280;40484;50.198;19.576;2023-04-02T11:37:52;101294.22;;;8.30;57.77
54588;BME280;40484;50.198;19.576;2023-04-02T11:42:54;101308.57;;;7.86;58.10
54588;BME280;40484;50.198;19.576;2023-04-02T11:58:37;101320.41;;;8.22;57.98
54588;BME280;40484;50.198;19.576;2023-04-02T12:09:50;101339.97;;;7.82;58.47
54588;BME280;40484;50.198;19.576;2023-04-02T12:14:54;101338.17;;;8.20;58.05
54588;BME280;40484;50.198;19.576;2023-04-02T12:25:21;101338.99;;;8.19;58.45
54588;BME280;40484;50.198;19.576;2023-04-02T12:30:24;101345.20;;;7.86;58.70
54588;BME280;40484;50.198;19.576;2023-04-02T12:35:33;101359.22;;;7.71;58.59
54588;BME280;40484;50.198;19.576;2023-04-02T12:40:35;101364.78;;;7.60;59.05
54588;BME280;40484;50.198;19.576;2023-04-02T12:45:37;101366.37;;;7.46;59.54
54588;BME280;40484;50.198;19.576;2023-04-02T12:50:39;101379.08;;;7.42;59.50
54588;BME280;40484;50.198;19.576;2023-04-02T12:55:45;101379.08;;;7.22;60.15
54588;BME280;40484;50.198;19.576;2023-04-02T13:00:45;101392.87;;;7.39;60.31
54588;BME280;40484;50.198;19.576;2023-04-02T13:05:53;101404.23;;;7.38;60.63
54588;BME280;40484;50.198;19.576;2023-04-02T13:11:36;101398.43;;;7.57;60.76
54588;BME280;40484;50.198;19.576;2023-04-02T13:16:38;101397.45;;;7.69;60.30
54588;BME280;40484;50.198;19.576;2023-04-02T13:21:40;101409.30;;;7.72;59.10
54588;BME280;40484;50.198;19.576;2023-04-02T13:26:42;101422.85;;;7.29;59.63
54588;BME280;40484;50.198;19.576;2023-04-02T13:31:43;101429.76;;;7.61;59.49
54588;BME280;40484;50.198;19.576;2023-04-02T13:36:45;101421.55;;;7.46;60.22
54588;BME280;40484;50.198;19.576;2023-04-02T13:41:57;101428.37;;;7.65;60.11
54588;BME280;40484;50.198;19.576;2023-04-02T13:46:59;101425.82;;;7.61;59.94
54588;BME280;40484;50.198;19.576;2023-04-02T13:52:02;101439.27;;;7.62;59.33
54588;BME280;40484;50.198;19.576;2023-04-02T13:57:05;101440.06;;;7.59;59.46
54588;BME280;40484;50.198;19.576;2023-04-02T14:02:17;101450.00;;;7.59;59.01
54588;BME280;40484;50.198;19.576;2023-04-02T14:07:23;101444.83;;;7.32;59.66
54588;BME280;40484;50.198;19.576;2023-04-02T14:12:39;101445.94;;;7.27;59.67
54588;BME280;40484;50.198;19.576;2023-04-02T14:18:20;101446.73;;;6.98;60.49
54588;BME280;40484;50.198;19.576;2023-04-02T14:23:41;101458.55;;;7.35;59.95
54588;BME280;40484;50.198;19.576;2023-04-02T14:29:04;101464.30;;;7.07;60.33
54588;BME280;40484;50.198;19.576;2023-04-02T14:39:34;101487.92;;;6.60;61.15
54588;BME280;40484;50.198;19.576;2023-04-02T14:44:35;101485.39;;;7.08;60.19
54588;BME280;40484;50.198;19.576;2023-04-02T14:49:37;101485.23;;;7.01;60.25
54588;BME280;40484;50.198;19.576;2023-04-02T14:55:08;101501.33;;;6.84;60.73
54588;BME280;40484;50.198;19.576;2023-04-02T15:00:26;101496.09;;;6.72;61.14
54588;BME280;40484;50.198;19.576;2023-04-02T15:05:34;101503.16;;;6.83;60.69
54588;BME280;40484;50.198;19.576;2023-04-02T15:10:50;101510.25;;;7.01;60.51
54588;BME280;40484;50.198;19.576;2023-04-02T15:15:45;101509.41;;;6.92;60.38
54588;BME280;40484;50.198;19.576;2023-04-02T15:20:56;101523.00;;;6.66;60.77
54588;BME280;40484;50.198;19.576;2023-04-02T15:26:01;101527.45;;;6.56;60.85
54588;BME280;40484;50.198;19.576;2023-04-02T15:31:02;101538.28;;;6.75;60.07
54588;BME280;40484;50.198;19.576;2023-04-02T15:36:40;101544.47;;;6.59;60.54
54588;BME280;40484;50.198;19.576;2023-04-02T15:42:34;101550.57;;;6.86;60.26
54588;BME280;40484;50.198;19.576;2023-04-02T15:52:54;101568.40;;;6.88;59.56
54588;BME280;40484;50.198;19.576;2023-04-02T15:58:27;101575.84;;;6.81;59.51
54588;BME280;40484;50.198;19.576;2023-04-02T16:03:52;101582.63;;;6.79;59.50
54588;BME280;40484;50.198;19.576;2023-04-02T16:09:29;101589.38;;;7.09;58.85
54588;BME280;40484;50.198;19.576;2023-04-02T16:14:31;101596.48;;;7.27;58.39
54588;BME280;40484;50.198;19.576;2023-04-02T16:19:37;101607.60;;;7.25;58.38
54588;BME280;40484;50.198;19.576;2023-04-02T16:24:38;101608.97;;;7.63;57.81
54588;BME280;40484;50.198;19.576;2023-04-02T16:35:22;101618.82;;;7.52;57.30
54588;BME280;40484;50.198;19.576;2023-04-02T16:45:41;101639.41;;;6.93;57.94
54588;BME280;40484;50.198;19.576;2023-04-02T16:50:53;101638.38;;;6.86;58.06
54588;BME280;40484;50.198;19.576;2023-04-02T16:56:39;101642.48;;;7.07;57.89
54588;BME280;40484;50.198;19.576;2023-04-02T17:01:55;101653.03;;;7.07;57.79
54588;BME280;40484;50.198;19.576;2023-04-02T17:07:01;101661.97;;;6.80;58.15
54588;BME280;40484;50.198;19.576;2023-04-02T17:17:13;101670.30;;;6.47;59.14
54588;BME280;40484;50.198;19.576;2023-04-02T17:22:17;101684.37;;;6.41;59.55
54588;BME280;40484;50.198;19.576;2023-04-02T17:27:32;101697.03;;;6.10;60.35
54588;BME280;40484;50.198;19.576;2023-04-02T17:32:34;101702.67;;;5.98;60.58
54588;BME280;40484;50.198;19.576;2023-04-02T17:37:39;101704.99;;;6.00;60.53
54588;BME280;40484;50.198;19.576;2023-04-02T17:48:41;101724.23;;;6.21;60.11
54588;BME280;40484;50.198;19.576;2023-04-02T17:53:51;101726.53;;;6.09;60.27
54588;BME280;40484;50.198;19.576;2023-04-02T17:59:01;101729.20;;;6.08;60.14
54588;BME280;40484;50.198;19.576;2023-04-02T18:20:30;101750.09;;;6.42;59.36
54588;BME280;40484;50.198;19.576;2023-04-02T18:25:50;101754.81;;;6.54;58.95
54588;BME280;40484;50.198;19.576;2023-04-02T18:31:00;101759.16;;;6.54;58.78
54588;BME280;40484;50.198;19.576;2023-04-02T18:36:17;101756.99;;;6.65;58.36
54588;BME280;40484;50.198;19.576;2023-04-02T18:41:33;101759.81;;;6.84;57.90
54588;BME280;40484;50.198;19.576;2023-04-02T18:46:38;101764.70;;;6.53;58.43
54588;BME280;40484;50.198;19.576;2023-04-02T18:51:38;101773.45;;;6.37;58.49
54588;BME280;40484;50.198;19.576;2023-04-02T19:00:35;101790.21;;;6.19;59.16
54588;BME280;40484;50.198;19.576;2023-04-02T19:05:52;101789.35;;;6.37;58.82
54588;BME280;40484;50.198;19.576;2023-04-02T19:10:52;101793.18;;;6.41;58.43
54588;BME280;40484;50.198;19.576;2023-04-02T19:16:16;101801.63;;;6.40;58.85
54588;BME280;40484;50.198;19.576;2023-04-02T19:21:23;101802.36;;;6.43;58.64
54588;BME280;40484;50.198;19.576;2023-04-02T19:26:29;101817.43;;;6.30;58.84
54588;BME280;40484;50.198;19.576;2023-04-02T19:31:53;101811.35;;;6.21;59.18
54588;BME280;40484;50.198;19.576;2023-04-02T19:36:54;101811.88;;;6.31;58.82
54588;BME280;40484;50.198;19.576;2023-04-02T19:42:02;101815.36;;;6.81;57.74
54588;BME280;40484;50.198;19.576;2023-04-02T19:47:27;101804.77;;;6.87;57.49
54588;BME280;40484;50.198;19.576;2023-04-02T19:52:28;101822.05;;;6.98;57.11
54588;BME280;40484;50.198;19.576;2023-04-02T19:57:30;101826.99;;;6.57;57.44
54588;BME280;40484;50.198;19.576;2023-04-02T20:02:31;101828.48;;;6.46;57.61
54588;BME280;40484;50.198;19.576;2023-04-02T20:07:33;101827.97;;;6.75;57.34
54588;BME280;40484;50.198;19.576;2023-04-02T20:12:35;101823.66;;;6.63;57.33
54588;BME280;40484;50.198;19.576;2023-04-02T20:17:36;101834.32;;;6.67;57.14
54588;BME280;40484;50.198;19.576;2023-04-02T20:22:38;101833.63;;;6.65;57.00
54588;BME280;40484;50.198;19.576;2023-04-02T20:27:39;101845.77;;;6.77;56.67
54588;BME280;40484;50.198;19.576;2023-04-02T20:32:41;101841.53;;;6.73;56.64
54588;BME280;40484;50.198;19.576;2023-04-02T20:37:42;101839.09;;;7.01;56.25
54588;BME280;40484;50.198;19.576;2023-04-02T20:42:44;101856.38;;;7.05;55.81
54588;BME280;40484;50.198;19.576;2023-04-02T20:47:45;101869.62;;;7.13;55.80
54588;BME280;40484;50.198;19.576;2023-04-02T20:52:47;101867.95;;;7.54;54.93
54588;BME280;40484;50.198;19.576;2023-04-02T20:57:48;101866.32;;;7.41;54.64
54588;BME280;40484;50.198;19.576;2023-04-02T21:02:50;101869.45;;;6.81;55.55
54588;BME280;40484;50.198;19.576;2023-04-02T21:07:52;101876.44;;;7.19;55.50
54588;BME280;40484;50.198;19.576;2023-04-02T21:12:53;101871.89;;;6.79;55.63
54588;BME280;40484;50.198;19.576;2023-04-02T21:17:54;101876.19;;;6.40;56.74
54588;BME280;40484;50.198;19.576;2023-04-02T21:22:56;101889.09;;;6.31;57.00
54588;BME280;40484;50.198;19.576;2023-04-02T21:27:57;101882.35;;;6.57;56.35
54588;BME280;40484;50.198;19.576;2023-04-02T21:32:59;101877.41;;;6.39;57.27
54588;BME280;40484;50.198;19.576;2023-04-02T21:38:27;101884.23;;;6.78;56.21
54588;BME280;40484;50.198;19.576;2023-04-02T21:43:28;101876.15;;;6.83;55.92
54588;BME280;40484;50.198;19.576;2023-04-02T21:48:30;101886.84;;;7.01;55.27
54588;BME280;40484;50.198;19.576;2023-04-02T21:53:32;101888.39;;;7.05;55.02
54588;BME280;40484;50.198;19.576;2023-04-02T21:58:33;101892.20;;;6.62;55.60
54588;BME280;40484;50.198;19.576;2023-04-02T22:03:35;101893.20;;;6.48;55.91
54588;BME280;40484;50.198;19.576;2023-04-02T22:08:38;101900.16;;;6.41;56.19
54588;BME280;40484;50.198;19.576;2023-04-02T22:13:42;101908.56;;;6.44;55.92
54588;BME280;40484;50.198;19.576;2023-04-02T22:18:44;101907.53;;;6.44;55.97
54588;BME280;40484;50.198;19.576;2023-04-02T22:23:47;101917.38;;;6.31;56.47
54588;BME280;40484;50.198;19.576;2023-04-02T22:28:49;101920.35;;;6.39;56.08
54588;BME280;40484;50.198;19.576;2023-04-02T22:33:52;101925.16;;;6.00;56.92
54588;BME280;40484;50.198;19.576;2023-04-02T22:38:55;101925.10;;;6.33;56.28
54588;BME280;40484;50.198;19.576;2023-04-02T22:43:58;101920.99;;;6.28;56.10
54588;BME280;40484;50.198;19.576;2023-04-02T22:48:59;101918.10;;;6.65;55.79
54588;BME280;40484;50.198;19.576;2023-04-02T22:54:01;101922.87;;;6.59;55.45
54588;BME280;40484;50.198;19.576;2023-04-02T22:59:02;101926.56;;;6.45;56.03
54588;BME280;40484;50.198;19.576;2023-04-02T23:04:04;101927.63;;;6.53;55.69
54588;BME280;40484;50.198;19.576;2023-04-02T23:09:06;101938.01;;;6.42;55.83
54588;BME280;40484;50.198;19.576;2023-04-02T23:14:08;101930.77;;;6.36;55.72
54588;BME280;40484;50.198;19.576;2023-04-02T23:19:35;101940.98;;;6.21;56.28
54588;BME280;40484;50.198;19.576;2023-04-02T23:24:36;101942.13;;;6.24;56.03
54588;BME280;40484;50.198;19.576;2023-04-02T23:29:38;101939.23;;;6.18;56.23
54588;BME280;40484;50.198;19.576;2023-04-02T23:34:39;101931.38;;;6.35;56.21
54588;BME280;40484;50.198;19.576;2023-04-02T23:39:41;101936.45;;;6.51;55.92
54588;BME280;40484;50.198;19.576;2023-04-02T23:44:42;101941.70;;;6.18;56.08
54588;BME280;40484;50.198;19.576;2023-04-02T23:49:44;101945.25;;;5.80;56.87
54588;BME280;40484;50.198;19.576;2023-04-02T23:54:47;101945.16;;;5.99;56.94
54588;BME280;40484;50.198;19.576;2023-04-02T23:59:49;101937.33;;;5.83;57.17
